OIAH  Gachsaran  Airport

Gachsaran, Iran

Add Bookmark
ICAO OIAH
Type Airport
Status Operational
Latitude
30° 20' 15" N
30.337601
Longitude
50° 49' 40" E
50.827999
Local (GMT +4.5 ) UTC
Aug 30, 2016 05:34 pm Aug 30, 2016 13:04
Sunrise-Sunset Local UTC
Begin Civil Twilight 06:16 am 01:46
Sunrise 06:41 am 02:11
Sunset 07:32 pm 15:02
End Civil Twilight 07:57 pm 15:27
VFR
VFR
MVFR
MVFR
IFR
IFR
LIFR
LIFR
Unknown
Unavailable

Current Weather

METAR Observed VFR
OIAH 301200Z 28012KT CAVOK 43/M03 Q1007 Tue, Aug 30, 2016 @ 12:00 UTC
(1 Hour, 4 Minutes ago)
Visual Flight Rules
Wind Visibility Conditions
280° at 12 knots (22 kph) 10 km or more
  • No significant weather
Temperatures Readings Precipitation
Current Temp
43°C
109°F
Dewpoint
-3°C
27°F
Humidity 5%
Altimeter 29.73" Hg
Sea Level Pressure 1,007 mb
Field Elevation
738 m
2,421 ft
None Recorded

Additional weather within a 92.6km radius of OIAH

Map ICAO Location
OISY 79.6km E/NE (059°)
VFR
VFR
MVFR
MVFR
IFR
IFR
LIFR
LIFR
Unknown
Unavailable
-
-

CheckWX.com is intended as a tool to help pilots better visualize weather data. It is not intended as a substitute for an official weather briefing obtained from a Flight Service Station. CheckWX.com does not meet the FAA requirements for an official pre-flight weather briefing. Therefore, it's important that pilots still call and obtain an official FSS pre-flight weather briefing.

© 2007-2016 CheckWX.com
13:04:09 UTC